Terminal Aerodrome Forecast
Issued by NWS

Home | Current Version | Previous Version | Text Only | Print | Product List | Glossary On
Versions: 1 2 3 4 5 6 7 8 9 10 11 12
000
FTUS43 KGRR 271142
TAFAZO
TAF
KAZO 271142Z 2712/2812 10007KT 6SM -SHRA OVC035
     FM271300 11007KT 5SM -SHRA BR VCTS OVC030CB
     FM271600 14009KT 3SM -SHRA BR VCTS OVC035CB
     FM271800 16010KT P6SM VCTS OVC035CB
     FM280100 20005KT P6SM BKN035=

USA.gov is the U.S. government's official web portal to all federal, state and local government web resources and services.